createdAt,value
2016-09-19T00:00:10.964Z,0
2016-09-19T00:01:11.208Z,0
2016-09-19T00:02:10.853Z,0
2016-09-19T00:03:10.823Z,0
2016-09-19T00:04:10.755Z,0
2016-09-19T00:05:10.745Z,0
2016-09-19T00:06:10.952Z,0
2016-09-19T00:07:10.931Z,0
2016-09-19T00:08:11.158Z,0
2016-09-19T00:09:10.855Z,0
2016-09-19T00:10:10.490Z,0
2016-09-19T00:11:10.444Z,0
2016-09-19T00:12:10.063Z,0
2016-09-19T00:13:10.635Z,0
2016-09-19T00:14:10.299Z,0
2016-09-19T00:15:09.927Z,0
2016-09-19T00:16:10.410Z,0
2016-09-19T00:17:10.481Z,0
2016-09-19T00:18:10.607Z,0
2016-09-19T00:19:10.570Z,0
2016-09-19T00:20:10.538Z,0
2016-09-19T00:21:09.959Z,0
2016-09-19T00:22:12.831Z,0
2016-09-19T00:23:10.782Z,0
2016-09-19T00:24:10.051Z,0
2016-09-19T00:25:09.516Z,0
2016-09-19T00:26:09.732Z,0
2016-09-19T00:27:09.672Z,0
2016-09-19T00:28:09.949Z,0
2016-09-19T00:29:09.610Z,0
2016-09-19T00:30:09.729Z,0
2016-09-19T00:31:09.819Z,0
2016-09-19T00:32:09.509Z,0
2016-09-19T00:33:09.691Z,0
2016-09-19T00:34:09.651Z,0
2016-09-19T00:35:10.029Z,0
2016-09-19T00:36:09.449Z,0
2016-09-19T00:37:09.487Z,0
2016-09-19T00:38:09.161Z,0
2016-09-19T00:39:09.138Z,0
2016-09-19T00:40:10.838Z,0
2016-09-19T00:41:09.074Z,0
2016-09-19T00:42:09.492Z,0
2016-09-19T00:43:09.443Z,0
2016-09-19T00:44:08.792Z,0
2016-09-19T00:45:08.562Z,0
2016-09-19T00:46:08.785Z,0
2016-09-19T00:47:08.750Z,0
2016-09-19T00:48:08.888Z,0
2016-09-19T00:49:09.019Z,0
2016-09-19T00:50:08.924Z,0
2016-09-19T00:51:08.877Z,0
2016-09-19T00:52:08.215Z,0
2016-09-19T00:53:08.494Z,0
2016-09-19T00:54:08.729Z,0
2016-09-19T00:55:08.771Z,0
2016-09-19T00:56:08.638Z,0
2016-09-19T00:57:08.266Z,0
2016-09-19T00:58:08.599Z,0
2016-09-19T00:59:08.505Z,0
2016-09-19T01:00:08.133Z,0
2016-09-19T01:01:08.002Z,0
2016-09-19T01:02:08.335Z,0
2016-09-19T01:03:08.298Z,0
2016-09-19T01:04:08.262Z,0
2016-09-19T01:05:08.209Z,0
2016-09-19T01:06:07.540Z,0
2016-09-19T01:07:08.096Z,0
2016-09-19T01:08:07.772Z,0
2016-09-19T01:09:07.735Z,0
2016-09-19T01:10:07.962Z,0
2016-09-19T01:11:08.112Z,0
2016-09-19T01:12:07.883Z,0
2016-09-19T01:13:07.517Z,0
2016-09-19T01:14:07.478Z,0
2016-09-19T01:15:07.457Z,0
2016-09-19T01:16:07.778Z,0
2016-09-19T01:17:07.718Z,0
2016-09-19T01:18:07.600Z,0
2016-09-19T01:19:07.235Z,0
2016-09-19T01:20:07.215Z,0
2016-09-19T01:21:07.444Z,0
2016-09-19T01:22:07.415Z,0
2016-09-19T01:23:06.751Z,0
2016-09-19T01:24:07.339Z,0
2016-09-19T01:25:07.477Z,0
2016-09-19T01:26:06.907Z,0
2016-09-19T01:27:06.565Z,0
2016-09-19T01:28:06.819Z,0
2016-09-19T01:29:06.886Z,0
2016-09-19T01:30:06.422Z,0
2016-09-19T01:31:06.661Z,0
2016-09-19T01:32:07.137Z,0
2016-09-19T01:33:06.788Z,0
2016-09-19T01:34:07.042Z,0
2016-09-19T01:35:06.805Z,0
2016-09-19T01:36:06.750Z,0
2016-09-19T01:37:06.399Z,0
2016-09-19T01:38:06.332Z,0
2016-09-19T01:39:06.627Z,0
2016-09-19T01:40:06.264Z,0
2016-09-19T01:41:06.500Z,0
2016-09-19T01:42:06.520Z,0
2016-09-19T01:43:06.401Z,0
2016-09-19T01:44:06.360Z,0
2016-09-19T01:45:06.321Z,0
2016-09-19T01:46:06.358Z,0
2016-09-19T01:47:06.222Z,0
2016-09-19T01:48:06.405Z,0
2016-09-19T01:49:05.836Z,0
2016-09-19T01:50:05.774Z,0
2016-09-19T01:51:06.033Z,0
2016-09-19T01:52:05.731Z,0
2016-09-19T01:53:05.716Z,0
2016-09-19T01:54:05.883Z,0
2016-09-19T01:55:05.541Z,0
2016-09-19T01:56:05.809Z,0
2016-09-19T01:57:05.878Z,0
2016-09-19T01:58:05.396Z,0
2016-09-19T01:59:05.383Z,0
2016-09-19T02:00:05.306Z,0
2016-09-19T02:01:05.573Z,0
2016-09-19T02:02:05.212Z,0
2016-09-19T02:03:05.167Z,0
2016-09-19T02:04:05.108Z,0
2016-09-19T02:05:05.069Z,0
2016-09-19T02:06:05.334Z,0
2016-09-19T02:07:04.975Z,0
2016-09-19T02:08:05.459Z,0
2016-09-19T02:09:09.413Z,0
2016-09-19T02:10:05.203Z,0
2016-09-19T02:11:05.301Z,0
2016-09-19T02:12:05.041Z,0
2016-09-19T02:13:04.700Z,0
2016-09-19T02:14:05.953Z,0
2016-09-19T02:15:04.619Z,0
2016-09-19T02:16:04.852Z,0
2016-09-19T02:17:04.909Z,0
2016-09-19T02:18:04.634Z,0
2016-09-19T02:19:04.714Z,0
2016-09-19T02:20:03.735Z,0
2016-09-19T02:21:04.861Z,0
2016-09-19T02:22:04.479Z,0
2016-09-19T02:23:04.540Z,0
2016-09-19T02:24:04.487Z,0
2016-09-19T02:25:04.450Z,0
2016-09-19T02:26:04.072Z,0
2016-09-19T02:27:04.093Z,0
2016-09-19T02:28:04.292Z,0
2016-09-19T02:29:04.003Z,0
2016-09-19T02:30:04.205Z,0
2016-09-19T02:31:04.170Z,0
2016-09-19T02:32:03.785Z,0
2016-09-19T02:33:04.045Z,0
2016-09-19T02:34:04.003Z,0
2016-09-19T02:35:03.352Z,0
2016-09-19T02:36:03.613Z,0
2016-09-19T02:38:03.509Z,0
2016-09-19T02:39:03.162Z,0
2016-09-19T02:40:03.724Z,0
2016-09-19T02:41:03.079Z,0
2016-09-19T02:42:03.309Z,0
2016-09-19T02:43:03.283Z,0
2016-09-19T02:44:03.259Z,0
2016-09-19T02:45:03.176Z,0
2016-09-19T02:46:03.134Z,0
2016-09-19T02:47:03.081Z,0
2016-09-19T02:48:02.762Z,0
2016-09-19T02:49:03.279Z,0
2016-09-19T02:50:03.251Z,0
2016-09-19T02:51:02.789Z,0
2016-09-19T02:52:02.848Z,0
2016-09-19T02:53:02.787Z,0
2016-09-19T02:54:03.056Z,0
2016-09-19T02:55:02.996Z,0
2016-09-19T02:56:02.353Z,0
2016-09-19T02:57:02.941Z,0
2016-09-19T02:58:02.548Z,0
2016-09-19T02:59:02.710Z,0
2016-09-19T03:00:02.770Z,0
2016-09-19T03:01:02.913Z,0
2016-09-19T03:02:02.358Z,0
2016-09-19T03:03:02.207Z,0
2016-09-19T03:04:02.793Z,0
2016-09-19T03:05:02.528Z,0
2016-09-19T03:06:02.195Z,0
2016-09-19T03:07:02.145Z,0
2016-09-19T03:08:02.388Z,0
2016-09-19T03:09:01.453Z,0
2016-09-19T03:10:02.177Z,0
2016-09-19T03:11:01.638Z,0
2016-09-19T03:12:02.608Z,0
2016-09-19T03:13:02.147Z,0
2016-09-19T03:14:01.812Z,0
2016-09-19T03:15:02.192Z,0
2016-09-19T03:16:01.398Z,0
2016-09-19T03:17:01.672Z,0
2016-09-19T03:18:02.115Z,0
2016-09-19T03:19:01.871Z,0
2016-09-19T03:20:01.542Z,0
2016-09-19T03:21:02.009Z,0
2016-09-19T03:22:01.636Z,0
2016-09-19T03:23:01.386Z,0
2016-09-19T03:24:01.235Z,0
2016-09-19T03:25:01.794Z,0
2016-09-19T03:26:01.543Z,0
2016-09-19T03:27:01.176Z,0
2016-09-19T03:28:01.448Z,0
2016-09-19T03:29:00.776Z,0
2016-09-19T03:30:01.080Z,0
2016-09-19T03:31:01.320Z,0
2016-09-19T03:32:01.460Z,0
2016-09-19T03:33:01.317Z,0
2016-09-19T03:34:01.165Z,0
2016-09-19T03:35:00.811Z,0
2016-09-19T03:36:00.708Z,0
2016-09-19T03:37:01.239Z,0
2016-09-19T03:38:00.987Z,0
2016-09-19T03:39:01.748Z,0
2016-09-19T03:40:00.561Z,0
2016-09-19T03:41:00.512Z,0
2016-09-19T03:42:00.982Z,0
2016-09-19T03:43:00.412Z,0
2016-09-19T03:44:00.369Z,0
2016-09-19T03:45:00.026Z,0
2016-09-19T03:46:00.582Z,0
2016-09-19T03:47:00.230Z,0
2016-09-19T03:48:00.195Z,0
2016-09-19T03:49:00.659Z,0
2016-09-19T03:50:00.592Z,0
2016-09-19T03:50:59.971Z,0
2016-09-19T03:52:00.285Z,0
2016-09-19T03:53:00.274Z,0
2016-09-19T03:54:00.435Z,0
2016-09-19T03:55:00.289Z,0
2016-09-19T03:56:00.037Z,0
2016-09-19T03:57:00.269Z,0
2016-09-19T03:57:59.728Z,0
2016-09-19T03:58:59.669Z,0
2016-09-19T03:59:59.917Z,0
2016-09-19T04:01:00.475Z,0
2016-09-19T04:02:00.039Z,0
2016-09-19T04:02:59.790Z,0
2016-09-19T04:03:59.952Z,0
2016-09-19T04:04:59.586Z,0
2016-09-19T04:05:59.861Z,0
2016-09-19T04:06:59.488Z,0
2016-09-19T04:07:59.227Z,0
2016-09-19T04:08:59.811Z,0
2016-09-19T04:09:59.442Z,0
2016-09-19T04:10:59.457Z,0
2016-09-19T04:11:59.243Z,0
2016-09-19T04:12:58.902Z,0
2016-09-19T04:13:59.489Z,0
2016-09-19T04:14:59.804Z,0
2016-09-19T04:15:59.771Z,0
2016-09-19T04:16:59.138Z,0
2016-09-19T04:17:58.454Z,0
2016-09-19T04:19:00.056Z,0
2016-09-19T04:20:06.296Z,0
2016-09-19T04:20:58.325Z,0
2016-09-19T04:21:58.263Z,0
2016-09-19T04:22:59.203Z,0
2016-09-19T04:23:58.769Z,0
2016-09-19T04:24:58.986Z,0
2016-09-19T04:25:58.382Z,0
2016-09-19T04:26:58.838Z,0
2016-09-19T04:27:58.588Z,0
2016-09-19T04:28:59.233Z,0
2016-09-19T04:29:58.180Z,0
2016-09-19T04:30:58.354Z,0
2016-09-19T04:31:58.131Z,0
2016-09-19T04:32:58.552Z,0
2016-09-19T04:33:57.889Z,0
2016-09-19T04:34:58.279Z,0
2016-09-19T04:35:58.206Z,0
2016-09-19T04:36:58.258Z,0
2016-09-19T04:37:59.272Z,0
2016-09-19T04:38:58.262Z,0
2016-09-19T04:39:58.334Z,0
2016-09-19T04:40:58.599Z,0
2016-09-19T04:41:57.624Z,0
2016-09-19T04:42:57.767Z,0
2016-09-19T04:43:58.247Z,0
2016-09-19T04:44:57.769Z,0
2016-09-19T04:45:58.167Z,0
2016-09-19T04:46:57.384Z,0
2016-09-19T04:47:57.326Z,0
2016-09-19T04:48:57.285Z,0
2016-09-19T04:49:57.531Z,0
2016-09-19T04:50:57.689Z,0
2016-09-19T04:51:57.549Z,0
2016-09-19T04:52:57.290Z,0
2016-09-19T04:53:57.038Z,0
2016-09-19T04:54:57.651Z,0
2016-09-19T04:55:57.448Z,0
2016-09-19T04:56:57.256Z,4
2016-09-19T04:57:57.060Z,4
2016-09-19T04:58:57.114Z,4
2016-09-19T04:59:57.455Z,0
2016-09-19T05:00:57.212Z,4
2016-09-19T05:01:56.972Z,4
2016-09-19T05:02:56.608Z,4
2016-09-19T05:03:56.873Z,4
2016-09-19T05:04:57.333Z,4
2016-09-19T05:05:56.665Z,8
2016-09-19T05:06:56.637Z,4
2016-09-19T05:07:56.883Z,8
2016-09-19T05:08:56.527Z,8
2016-09-19T05:09:56.803Z,12
2016-09-19T05:10:56.241Z,8
2016-09-19T05:11:56.173Z,12
2016-09-19T05:12:56.646Z,12
2016-09-19T05:13:56.817Z,16
2016-09-19T05:14:56.357Z,20
2016-09-19T05:15:55.985Z,20
2016-09-19T05:16:56.347Z,20
2016-09-19T05:17:56.193Z,24
2016-09-19T05:18:56.337Z,28
2016-09-19T05:19:56.113Z,28
2016-09-19T05:20:56.494Z,28
2016-09-19T05:21:56.067Z,32
2016-09-19T05:22:55.961Z,32
2016-09-19T05:23:55.289Z,36
2016-09-19T05:24:56.458Z,36
2016-09-19T05:25:55.500Z,40
2016-09-19T05:26:55.475Z,44
2016-09-19T05:27:55.725Z,48
2016-09-19T05:28:55.901Z,48
2016-09-19T05:29:55.620Z,56
2016-09-19T05:30:55.452Z,56
2016-09-19T05:31:55.516Z,64
2016-09-19T05:32:55.885Z,68
2016-09-19T05:33:54.878Z,72
2016-09-19T05:34:55.281Z,72
2016-09-19T05:35:55.218Z,80
2016-09-19T05:36:55.704Z,80
2016-09-19T05:37:55.264Z,88
2016-09-19T05:38:54.609Z,96
2016-09-19T05:39:55.216Z,96
2016-09-19T05:40:55.348Z,104
2016-09-19T05:41:55.457Z,112
2016-09-19T05:42:54.887Z,120
2016-09-19T05:43:54.959Z,132
2016-09-19T05:44:55.105Z,136
2016-09-19T05:45:54.887Z,144
2016-09-19T05:46:54.801Z,152
2016-09-19T05:47:54.773Z,156
2016-09-19T05:48:54.703Z,160
2016-09-19T05:49:54.349Z,164
2016-09-19T05:50:54.608Z,168
2016-09-19T05:51:54.266Z,176
2016-09-19T05:52:54.512Z,180
2016-09-19T05:53:53.868Z,188
2016-09-19T05:54:54.033Z,192
2016-09-19T05:55:54.269Z,200
2016-09-19T05:56:53.473Z,208
2016-09-19T05:57:53.995Z,212
2016-09-19T05:58:54.428Z,224
2016-09-19T05:59:53.890Z,228
2016-09-19T06:00:54.030Z,236
2016-09-19T06:01:54.490Z,244
2016-09-19T06:02:53.744Z,248
2016-09-19T06:03:54.207Z,252
2016-09-19T06:04:54.161Z,260
2016-09-19T06:05:53.623Z,268
2016-09-19T06:06:53.871Z,272
2016-09-19T06:07:53.495Z,276
2016-09-19T06:08:53.734Z,284
2016-09-19T06:09:53.409Z,296
2016-09-19T06:10:53.666Z,308
2016-09-19T06:11:53.003Z,316
2016-09-19T06:12:53.289Z,328
2016-09-19T06:13:52.883Z,344
2016-09-19T06:14:53.036Z,356
2016-09-19T06:15:53.125Z,376
2016-09-19T06:16:52.753Z,388
2016-09-19T06:17:53.328Z,400
2016-09-19T06:18:53.289Z,408
2016-09-19T06:19:53.620Z,416
2016-09-19T06:20:55.456Z,424
2016-09-19T06:21:54.036Z,432
2016-09-19T06:22:53.060Z,440
2016-09-19T06:23:52.716Z,448
2016-09-19T06:24:53.176Z,456
2016-09-19T06:25:53.131Z,468
2016-09-19T06:26:52.620Z,476
2016-09-19T06:27:52.836Z,480
2016-09-19T06:28:52.480Z,488
2016-09-19T06:29:52.968Z,496
2016-09-19T06:30:52.798Z,492
2016-09-19T06:31:52.646Z,488
2016-09-19T06:32:52.307Z,484
2016-09-19T06:33:52.569Z,472
2016-09-19T06:34:51.608Z,476
2016-09-19T06:35:52.953Z,476
2016-09-19T06:36:52.406Z,472
2016-09-19T06:37:52.037Z,476
2016-09-19T06:38:51.896Z,476
2016-09-19T06:39:52.285Z,476
2016-09-19T06:40:52.224Z,484
2016-09-19T06:41:52.185Z,484
2016-09-19T06:42:52.136Z,492
2016-09-19T06:43:52.095Z,496
2016-09-19T06:44:52.339Z,508
2016-09-19T06:45:51.724Z,512
2016-09-19T06:46:53.665Z,524
2016-09-19T06:47:51.902Z,532
2016-09-19T06:48:51.242Z,540
2016-09-19T06:49:51.838Z,548
2016-09-19T06:50:51.145Z,552
2016-09-19T06:51:51.616Z,564
2016-09-19T06:52:51.078Z,568
2016-09-19T06:53:51.533Z,580
2016-09-19T06:54:51.574Z,592
2016-09-19T06:55:51.312Z,604
2016-09-19T06:56:51.468Z,616
2016-09-19T06:57:51.021Z,624
2016-09-19T06:58:51.680Z,636
2016-09-19T06:59:50.906Z,652
2016-09-19T07:00:50.960Z,672
2016-09-19T07:01:50.627Z,676
2016-09-19T07:02:51.356Z,680
2016-09-19T07:03:50.827Z,680
2016-09-19T07:04:51.482Z,684
2016-09-19T07:05:51.318Z,684
2016-09-19T07:06:51.188Z,688
2016-09-19T07:07:50.658Z,696
2016-09-19T07:08:50.888Z,704
2016-09-19T07:09:51.049Z,704
2016-09-19T07:10:50.865Z,712
2016-09-19T07:11:50.752Z,708
2016-09-19T07:12:50.715Z,708
2016-09-19T07:13:50.849Z,712
2016-09-19T07:14:50.833Z,716
2016-09-19T07:15:50.290Z,716
2016-09-19T07:16:50.220Z,716
2016-09-19T07:17:50.537Z,704
2016-09-19T07:18:50.416Z,700
2016-09-19T07:19:50.073Z,692
2016-09-19T07:20:50.346Z,684
2016-09-19T07:21:50.200Z,672
2016-09-19T07:22:50.458Z,664
2016-09-19T07:23:49.999Z,652
2016-09-19T07:24:50.238Z,652
2016-09-19T07:25:49.774Z,636
2016-09-19T07:26:50.042Z,612
2016-09-19T07:27:49.778Z,612
2016-09-19T07:28:49.963Z,612
2016-09-19T07:29:50.215Z,612
2016-09-19T07:30:50.197Z,608
2016-09-19T07:31:49.089Z,600
2016-09-19T07:32:49.158Z,596
2016-09-19T07:33:49.899Z,588
2016-09-19T07:34:49.375Z,584
2016-09-19T07:35:49.692Z,576
2016-09-19T07:36:49.649Z,572
2016-09-19T07:37:49.736Z,568
2016-09-19T07:38:48.894Z,572
2016-09-19T07:39:49.575Z,568
2016-09-19T07:40:49.278Z,568
2016-09-19T07:41:49.031Z,564
2016-09-19T07:42:49.472Z,568
2016-09-19T07:43:48.805Z,568
2016-09-19T07:44:48.937Z,564
2016-09-19T07:45:48.772Z,552
2016-09-19T07:46:49.098Z,548
2016-09-19T07:47:49.063Z,536
2016-09-19T07:48:49.005Z,532
2016-09-19T07:49:48.852Z,520
2016-09-19T07:50:49.256Z,528
2016-09-19T07:51:49.737Z,516
2016-09-19T07:52:48.566Z,504
2016-09-19T07:53:48.917Z,496
2016-09-19T07:54:48.491Z,492
2016-09-19T07:55:48.792Z,480
2016-09-19T07:56:48.502Z,496
2016-09-19T07:57:48.403Z,500
2016-09-19T07:58:48.558Z,504
2016-09-19T07:59:47.995Z,508
2016-09-19T08:00:50.288Z,512
2016-09-19T08:01:48.069Z,516
2016-09-19T08:02:48.332Z,528
2016-09-19T08:03:48.263Z,540
2016-09-19T08:04:48.199Z,556
2016-09-19T08:05:47.903Z,568
2016-09-19T08:06:48.184Z,576
2016-09-19T08:07:47.807Z,600
2016-09-19T08:08:48.079Z,608
2016-09-19T08:09:48.141Z,616
2016-09-19T08:10:50.461Z,616
2016-09-19T08:11:48.076Z,616
2016-09-19T08:12:47.530Z,624
2016-09-19T08:13:47.589Z,624
2016-09-19T08:14:47.680Z,624
2016-09-19T08:15:47.681Z,612
2016-09-19T08:16:47.087Z,612
2016-09-19T08:17:47.502Z,604
2016-09-19T08:18:47.607Z,592
2016-09-19T08:19:46.983Z,584
2016-09-19T08:20:47.498Z,568
2016-09-19T08:21:47.420Z,544
2016-09-19T08:22:46.768Z,524
2016-09-19T08:23:47.411Z,512
2016-09-19T08:24:46.713Z,508
2016-09-19T08:25:47.340Z,516
2016-09-19T08:26:47.412Z,520
2016-09-19T08:27:46.917Z,528
2016-09-19T08:28:46.884Z,536
2016-09-19T08:29:47.087Z,536
2016-09-19T08:30:46.733Z,540
2016-09-19T08:31:47.579Z,548
2016-09-19T08:32:46.303Z,560
2016-09-19T08:33:46.977Z,564
2016-09-19T08:34:46.600Z,584
2016-09-19T08:35:46.458Z,596
2016-09-19T08:36:46.439Z,616
2016-09-19T08:37:46.067Z,624
2016-09-19T08:38:46.706Z,640
2016-09-19T08:39:47.555Z,656
2016-09-19T08:40:46.325Z,680
2016-09-19T08:41:46.730Z,700
2016-09-19T08:42:47.004Z,716
2016-09-19T08:43:45.838Z,736
2016-09-19T08:44:45.462Z,760
2016-09-19T08:45:46.228Z,776
2016-09-19T08:46:45.967Z,796
2016-09-19T08:47:45.900Z,808
2016-09-19T08:48:46.240Z,824
2016-09-19T08:49:46.203Z,840
2016-09-19T08:50:46.023Z,844
2016-09-19T08:51:45.527Z,856
2016-09-19T08:52:45.855Z,864
2016-09-19T08:53:45.309Z,864
2016-09-19T08:54:45.571Z,868
2016-09-19T08:55:45.576Z,868
2016-09-19T08:56:45.826Z,860
2016-09-19T08:57:45.535Z,860
2016-09-19T08:58:45.536Z,856
2016-09-19T08:59:45.600Z,852
2016-09-19T09:00:45.665Z,852
2016-09-19T09:01:45.462Z,848
2016-09-19T09:02:45.759Z,844
2016-09-19T09:03:45.065Z,844
2016-09-19T09:04:45.594Z,844
2016-09-19T09:05:45.077Z,840
2016-09-19T09:06:45.536Z,840
2016-09-19T09:07:45.072Z,844
2016-09-19T09:08:45.247Z,852
2016-09-19T09:09:45.961Z,856
2016-09-19T09:10:45.144Z,864
2016-09-19T09:11:44.868Z,864
2016-09-19T09:12:44.871Z,864
2016-09-19T09:13:44.698Z,864
2016-09-19T09:14:45.310Z,856
2016-09-19T09:15:44.674Z,848
2016-09-19T09:16:44.701Z,848
2016-09-19T09:17:44.633Z,880
2016-09-19T09:18:44.971Z,884
2016-09-19T09:20:00.948Z,892
2016-09-19T09:20:45.639Z,900
2016-09-19T09:21:44.312Z,908
2016-09-19T09:22:44.553Z,920
2016-09-19T09:23:44.591Z,916
2016-09-19T09:24:44.236Z,932
2016-09-19T09:25:43.824Z,956
2016-09-19T09:26:43.979Z,960
2016-09-19T09:27:44.235Z,976
2016-09-19T09:28:43.696Z,992
2016-09-19T09:29:43.940Z,1008
2016-09-19T09:30:44.446Z,1028
2016-09-19T09:31:43.593Z,1028
2016-09-19T09:32:44.063Z,1040
2016-09-19T09:33:44.134Z,1064
2016-09-19T09:34:43.073Z,1076
2016-09-19T09:35:43.665Z,1088
2016-09-19T09:36:43.884Z,1108
2016-09-19T09:37:44.072Z,1124
2016-09-19T09:38:43.928Z,1148
2016-09-19T09:39:45.671Z,1184
2016-09-19T09:40:43.420Z,1224
2016-09-19T09:41:49.185Z,1260
2016-09-19T09:42:43.364Z,1272
2016-09-19T09:43:43.330Z,1300
2016-09-19T09:44:42.973Z,1320
2016-09-19T09:45:43.581Z,1340
2016-09-19T09:46:43.650Z,1352
2016-09-19T09:47:43.186Z,1372
2016-09-19T09:48:43.360Z,1388
2016-09-19T09:49:43.020Z,1404
2016-09-19T09:50:42.659Z,1416
2016-09-19T09:51:42.643Z,1424
2016-09-19T09:52:42.883Z,1440
2016-09-19T09:53:43.244Z,1452
2016-09-19T09:54:42.758Z,1472
2016-09-19T09:55:43.156Z,1492
2016-09-19T09:56:43.376Z,1504
2016-09-19T09:57:42.651Z,1524
2016-09-19T09:58:42.912Z,1540
2016-09-19T09:59:42.597Z,1544
2016-09-19T10:00:44.516Z,1592
2016-09-19T10:01:43.591Z,1620
2016-09-19T10:02:42.753Z,1616
2016-09-19T10:03:44.375Z,1660
2016-09-19T10:04:45.177Z,1676
2016-09-19T10:05:43.226Z,1688
2016-09-19T10:06:42.159Z,1704
2016-09-19T10:07:42.047Z,1696
2016-09-19T10:08:42.455Z,1732
2016-09-19T10:09:42.946Z,1740
2016-09-19T10:10:43.336Z,1752
2016-09-19T10:11:41.667Z,1772
2016-09-19T10:12:42.597Z,1772
2016-09-19T10:13:42.195Z,1788
2016-09-19T10:14:44.308Z,1764
2016-09-19T10:15:42.189Z,1740
2016-09-19T10:16:42.059Z,1704
2016-09-19T10:17:42.186Z,1712
2016-09-19T10:18:41.675Z,1724
2016-09-19T10:19:41.664Z,1740
2016-09-19T10:20:41.783Z,1792
2016-09-19T10:21:41.741Z,1820
2016-09-19T10:22:41.777Z,1848
2016-09-19T10:23:41.423Z,1872
2016-09-19T10:24:41.986Z,1888
2016-09-19T10:25:43.073Z,1944
2016-09-19T10:26:41.547Z,1872
2016-09-19T10:27:41.553Z,1884
2016-09-19T10:28:41.159Z,1884
2016-09-19T10:29:41.115Z,1876
2016-09-19T10:30:41.063Z,1872
2016-09-19T10:31:40.723Z,1868
2016-09-19T10:32:41.269Z,1864
2016-09-19T10:33:40.844Z,1968
2016-09-19T10:34:40.919Z,1988
2016-09-19T10:35:41.649Z,1996
2016-09-19T10:36:40.970Z,2000
2016-09-19T10:37:41.111Z,2004
2016-09-19T10:38:40.691Z,2016
2016-09-19T10:39:40.330Z,2024
2016-09-19T10:40:40.699Z,2040
2016-09-19T10:41:40.903Z,2056
2016-09-19T10:42:40.516Z,2080
2016-09-19T10:43:40.366Z,2096
2016-09-19T10:44:40.417Z,2112
2016-09-19T10:45:40.248Z,2124
2016-09-19T10:46:40.705Z,2132
2016-09-19T10:47:40.261Z,2140
2016-09-19T10:48:40.344Z,2148
2016-09-19T10:49:40.536Z,2156
2016-09-19T10:50:40.692Z,2160
2016-09-19T10:51:40.139Z,2160
2016-09-19T10:52:40.204Z,2160
2016-09-19T10:53:40.093Z,2164
2016-09-19T10:54:40.772Z,2168
2016-09-19T10:55:40.616Z,2176
2016-09-19T10:56:40.535Z,2176
2016-09-19T10:57:43.131Z,2172
2016-09-19T10:58:43.383Z,2172
2016-09-19T10:59:40.036Z,2172
2016-09-19T11:00:40.092Z,2164
2016-09-19T11:01:39.928Z,2160
2016-09-19T11:02:40.035Z,2152
2016-09-19T11:03:39.689Z,2144
2016-09-19T11:04:39.699Z,2132
2016-09-19T11:05:39.769Z,2120
2016-09-19T11:06:39.324Z,2052
2016-09-19T11:07:39.406Z,2028
2016-09-19T11:08:39.788Z,2020
2016-09-19T11:09:39.489Z,2004
2016-09-19T11:10:39.179Z,1992
2016-09-19T11:11:38.840Z,1976
2016-09-19T11:12:39.407Z,1964
2016-09-19T11:13:39.706Z,1948
2016-09-19T11:14:39.235Z,1940
2016-09-19T11:15:39.396Z,1896
2016-09-19T11:16:39.818Z,1892
2016-09-19T11:17:38.863Z,1896
2016-09-19T11:18:39.612Z,1936
2016-09-19T11:19:38.479Z,1948
2016-09-19T11:20:38.780Z,1956
2016-09-19T11:21:38.944Z,1968
2016-09-19T11:22:38.011Z,1980
2016-09-19T11:23:38.665Z,1992
2016-09-19T11:24:38.731Z,2004
2016-09-19T11:25:38.666Z,2016
2016-09-19T11:26:38.727Z,2036
2016-09-19T11:27:38.706Z,2008
2016-09-19T11:28:38.610Z,2016
2016-09-19T11:29:38.290Z,2024
2016-09-19T11:30:38.567Z,2040
2016-09-19T11:31:38.535Z,2060
2016-09-19T11:32:37.851Z,2080
2016-09-19T11:33:38.116Z,2100
2016-09-19T11:34:38.078Z,2124
2016-09-19T11:35:38.038Z,2140
2016-09-19T11:36:38.057Z,2156
2016-09-19T11:37:38.216Z,2164
2016-09-19T11:38:38.304Z,2164
2016-09-19T11:39:38.162Z,2164
2016-09-19T11:40:37.797Z,2160
2016-09-19T11:41:37.493Z,2168
2016-09-19T11:42:37.940Z,2184
2016-09-19T11:43:37.958Z,2200
2016-09-19T11:44:37.958Z,2212
2016-09-19T11:45:37.607Z,2216
2016-09-19T11:46:37.629Z,2224
2016-09-19T11:47:37.152Z,2224
2016-09-19T11:49:37.399Z,2224
2016-09-19T11:50:37.305Z,2224
2016-09-19T11:51:37.603Z,2228
2016-09-19T11:52:37.253Z,2244
2016-09-19T11:53:37.179Z,2260
2016-09-19T11:54:37.457Z,2276
2016-09-19T11:55:37.406Z,2292
2016-09-19T11:56:37.137Z,2332
2016-09-19T11:57:37.331Z,2352
2016-09-19T11:58:37.296Z,2368
2016-09-19T11:59:37.236Z,2344
2016-09-19T12:00:37.224Z,2384
2016-09-19T12:01:36.529Z,2380
2016-09-19T12:02:37.410Z,2380
2016-09-19T12:03:36.752Z,2408
2016-09-19T12:04:37.035Z,2420
2016-09-19T12:05:36.956Z,2444
2016-09-19T12:06:37.157Z,2460
2016-09-19T12:07:36.246Z,2468
2016-09-19T12:08:36.833Z,2476
2016-09-19T12:09:36.801Z,2496
2016-09-19T12:10:36.519Z,2464
2016-09-19T12:11:36.424Z,2480
2016-09-19T12:12:36.633Z,2504
2016-09-19T12:13:36.904Z,2532
2016-09-19T12:14:36.607Z,2552
2016-09-19T12:15:36.764Z,2572
2016-09-19T12:16:35.850Z,2572
2016-09-19T12:17:37.225Z,2584
2016-09-19T12:18:36.098Z,2592
2016-09-19T12:19:36.424Z,2596
2016-09-19T12:20:36.059Z,2604
2016-09-19T12:22:36.174Z,2616
2016-09-19T12:23:35.963Z,2664
2016-09-19T12:24:36.298Z,2612
2016-09-19T12:25:36.031Z,2500
2016-09-19T12:26:35.979Z,2356
2016-09-19T12:27:35.942Z,2208
2016-09-19T12:28:35.938Z,2104
2016-09-19T12:29:35.846Z,2036
2016-09-19T12:30:35.835Z,1960
2016-09-19T12:31:35.820Z,1924
2016-09-19T12:32:35.354Z,2048
2016-09-19T12:33:36.109Z,1984
2016-09-19T12:34:37.014Z,2116
2016-09-19T12:35:35.268Z,2600
2016-09-19T12:36:35.264Z,2516
2016-09-19T12:37:35.539Z,2952
2016-09-19T12:38:35.607Z,4508
2016-09-19T12:39:35.119Z,3968
2016-09-19T12:40:34.748Z,2788
2016-09-19T12:41:35.338Z,3892
2016-09-19T12:42:35.293Z,4052
2016-09-19T12:43:35.123Z,3976
2016-09-19T12:44:35.252Z,3896
2016-09-19T12:45:36.023Z,3884
2016-09-19T12:46:35.118Z,3896
2016-09-19T12:47:36.844Z,3916
2016-09-19T12:48:35.037Z,4036
2016-09-19T12:49:34.614Z,4024
2016-09-19T12:50:34.024Z,4084
2016-09-19T12:51:35.015Z,4088
2016-09-19T12:52:34.996Z,4140
2016-09-19T12:53:35.166Z,4168
2016-09-19T12:54:34.139Z,4316
2016-09-19T12:55:34.903Z,4516
2016-09-19T12:56:34.362Z,4732
2016-09-19T12:57:34.699Z,4828
2016-09-19T12:58:34.222Z,4472
2016-09-19T12:59:34.524Z,5568
2016-09-19T13:00:34.171Z,5464
2016-09-19T13:01:34.562Z,5120
2016-09-19T13:02:34.180Z,4752
2016-09-19T13:03:34.433Z,2900
2016-09-19T13:04:34.017Z,2384
2016-09-19T13:05:34.305Z,2108
2016-09-19T13:06:34.194Z,1848
2016-09-19T13:07:34.171Z,1592
2016-09-19T13:08:34.445Z,1392
2016-09-19T13:09:34.078Z,1260
2016-09-19T13:10:33.792Z,1120
2016-09-19T13:11:34.262Z,1000
2016-09-19T13:12:34.097Z,908
2016-09-19T13:13:33.273Z,820
2016-09-19T13:14:33.571Z,748
2016-09-19T13:15:34.064Z,680
2016-09-19T13:16:33.747Z,628
2016-09-19T13:17:33.951Z,584
2016-09-19T13:18:33.876Z,552
2016-09-19T13:19:33.316Z,520
2016-09-19T13:20:33.241Z,496
2016-09-19T13:21:33.777Z,472
2016-09-19T13:22:33.508Z,456
2016-09-19T13:23:33.440Z,444
2016-09-19T13:24:33.078Z,432
2016-09-19T13:25:33.112Z,416
2016-09-19T13:26:33.555Z,404
2016-09-19T13:27:33.246Z,400
2016-09-19T13:28:33.195Z,396
2016-09-19T13:29:33.044Z,392
2016-09-19T13:30:33.320Z,388
2016-09-19T13:31:32.179Z,388
2016-09-19T13:32:32.721Z,396
2016-09-19T13:33:32.852Z,400
2016-09-19T13:34:32.638Z,408
2016-09-19T13:35:32.564Z,412
2016-09-19T13:36:32.559Z,412
2016-09-19T13:37:32.535Z,416
2016-09-19T13:38:32.430Z,416
2016-09-19T13:39:32.495Z,416
2016-09-19T13:40:32.921Z,420
2016-09-19T13:41:32.592Z,420
2016-09-19T13:42:32.283Z,424
2016-09-19T13:43:33.009Z,428
2016-09-19T13:44:32.463Z,428
2016-09-19T13:45:32.249Z,432
2016-09-19T13:46:32.619Z,440
2016-09-19T13:47:32.337Z,440
2016-09-19T13:48:32.276Z,444
2016-09-19T13:49:32.635Z,444
2016-09-19T13:50:32.497Z,448
2016-09-19T13:51:32.295Z,448
2016-09-19T13:52:31.771Z,452
2016-09-19T13:53:32.405Z,448
2016-09-19T13:54:31.398Z,440
2016-09-19T13:55:31.643Z,444
2016-09-19T13:56:31.598Z,444
2016-09-19T13:57:32.348Z,444
2016-09-19T13:58:31.498Z,452
2016-09-19T13:59:31.575Z,456
2016-09-19T14:00:31.311Z,460
2016-09-19T14:01:31.225Z,464
2016-09-19T14:02:31.584Z,464